Time,TemperatureF,DewpointF,PressureIn,WindDirection,WindDirectionDegrees,WindSpeedMPH,WindSpeedGustMPH,Humidity,HourlyPrecipIn,Conditions,Clouds,dailyrainin,SoftwareType,DateUTC
2014-02-17 00:00:00,40.1,30.4,30.17,North,0,4.0,14.0,68,0.00,,OVC,0.00,VWS V14.01,2014-02-17 05:00:00,
2014-02-17 01:00:00,38.9,30.7,30.18,North,0,5.0,17.0,72,0.00,,OVC,0.00,VWS V14.01,2014-02-17 06:00:00,
2014-02-17 02:00:00,37.6,30.7,30.19,NNE,22,4.0,13.0,76,0.00,,OVC,0.00,VWS V14.01,2014-02-17 07:00:00,
2014-02-17 03:00:00,36.9,30.4,30.19,NNE,22,1.0,8.0,77,0.00,,OVC,0.00,VWS V14.01,2014-02-17 08:00:00,
2014-02-17 04:00:00,37.8,30.3,30.20,ESE,112,1.0,5.0,74,0.00,,OVC,0.00,VWS V14.01,2014-02-17 09:00:00,
2014-02-17 05:00:00,38.0,29.1,30.22,SSE,158,1.0,5.0,70,0.00,,OVC,0.00,VWS V14.01,2014-02-17 10:00:00,
2014-02-17 06:00:00,38.1,28.8,30.24,North,0,0.0,1.0,69,0.00,,OVC,0.00,VWS V14.01,2014-02-17 11:00:00,
2014-02-17 07:00:00,36.3,29.5,30.25,North,0,0.0,1.0,76,0.00,,OVC,0.00,VWS V14.01,2014-02-17 12:00:00,
2014-02-17 08:00:00,35.7,29.5,30.28,SSW,202,0.0,1.0,78,0.00,,OVC,0.00,VWS V14.01,2014-02-17 13:00:00,
2014-02-17 09:00:00,35.9,29.4,30.30,West,270,0.0,4.0,77,0.00,,OVC,0.00,VWS V14.01,2014-02-17 14:00:00,
2014-02-17 10:00:00,37.8,29.9,30.29,West,270,0.0,2.0,73,0.00,,OVC,0.00,VWS V14.01,2014-02-17 15:00:00,
2014-02-17 11:00:00,40.0,28.8,30.30,SW,225,0.0,4.0,64,0.00,,OVC,0.00,VWS V14.01,2014-02-17 16:00:00,
2014-02-17 12:00:00,41.1,27.9,30.28,SW,225,0.0,7.0,59,0.00,,OVC,0.00,VWS V14.01,2014-02-17 17:00:00,
2014-02-17 13:00:00,41.3,28.9,30.25,SW,225,1.0,7.0,61,0.00,,OVC,0.00,VWS V14.01,2014-02-17 18:00:00,
2014-02-17 14:00:00,44.0,29.8,30.25,SW,225,1.0,7.0,57,0.00,,OVC,0.00,VWS V14.01,2014-02-17 19:00:00,
2014-02-17 15:00:00,46.1,30.4,30.20,SW,225,1.0,8.0,54,0.00,,OVC,0.00,VWS V14.01,2014-02-17 20:00:00,
2014-02-17 16:00:00,45.9,30.7,30.19,West,270,1.0,6.0,55,0.00,,OVC,0.00,VWS V14.01,2014-02-17 21:00:00,
2014-02-17 17:00:00,46.2,30.5,30.19,WSW,248,0.0,5.0,54,0.00,,OVC,0.00,VWS V14.01,2014-02-17 22:00:00,
2014-02-17 18:00:00,42.8,30.3,30.21,West,270,0.0,5.0,61,0.00,,OVC,0.00,VWS V14.01,2014-02-17 23:00:00,
2014-02-17 19:00:00,40.8,30.3,30.22,WSW,248,0.0,3.0,66,0.00,,OVC,0.00,VWS V14.01,2014-02-18 00:00:00,
2014-02-17 20:00:00,40.2,30.1,30.19,WSW,248,0.0,1.0,67,0.00,,OVC,0.00,VWS V14.01,2014-02-18 01:00:00,
2014-02-17 21:00:00,39.2,31.0,30.20,WSW,248,0.0,1.0,72,0.00,,OVC,0.00,VWS V14.01,2014-02-18 02:00:00,
2014-02-17 22:00:00,39.5,31.2,30.22,WSW,248,0.0,1.0,72,0.00,,OVC,0.00,VWS V14.01,2014-02-18 03:00:00,
2014-02-17 23:00:00,38.5,33.2,30.21,WSW,248,0.0,1.0,81,0.00,,OVC,0.00,VWS V14.01,2014-02-18 04:00:00,